Tenjinmaru No11 — JD3353 — position and weather

sailwx.info

Track history (hours):
 
Tides and Currents Weather Stations Pressure Air Temp Water Temp Dewpoint Dewpoint Depression Visibility Wind Speed Wind Dir Waves Ship Positions

Tenjinmaru No11

Last reported at 2014-Sep-17 10:30 UTC. Time now 2014-Sep-19 22:00 UTC.
Position N 34°37' E 135°01'.

Length 75 m; draft 4.2 m.

Type: Cargo ship. MMSI: 431003485.

Date/timePositionNaut miles runAvg speedWind from/ knotsBaromVisibWave heightAir tempDewpointWater temp
2014-Sep-17 10:30N 34°37' E 135°01'1111.6
2014-Sep-17 09:33N 34°36' E 135°14'1010.3
2014-Sep-17 08:32N 34°38' E 135°27'0 0.0
2014-Sep-17 07:28N 34°38' E 135°27'0 0.0
2014-Sep-17 06:32N 34°38' E 135°27'0 0.0
2014-Sep-17 05:15N 34°38' E 135°27'0 0.0
2014-Sep-17 04:27N 34°38' E 135°27'2 1.3
2014-Sep-17 02:33N 34°39' E 135°24'8 7.8
2014-Sep-17 01:33N 34°31' E 135°24'0 0.0
2014-Sep-17 00:33N 34°31' E 135°24'0 0.0
2014-Sep-16 23:33N 34°31' E 135°24'0 0.0
2014-Sep-16 22:33N 34°31' E 135°24'0 0.0
2014-Sep-16 21:33N 34°31' E 135°24'0 0.0
2014-Sep-16 20:33N 34°31' E 135°24'0 0.0
2014-Sep-16 19:33N 34°31' E 135°24'0 0.0
2014-Sep-16 18:33N 34°31' E 135°24'0 0.0
2014-Sep-16 17:33N 34°31' E 135°24'0 0.0
2014-Sep-16 16:33N 34°31' E 135°24'0 0.0
2014-Sep-16 15:33N 34°31' E 135°24'0 0.0
2014-Sep-16 14:33N 34°31' E 135°24'0 0.0
2014-Sep-16 13:33N 34°31' E 135°24'0 0.0
2014-Sep-16 12:32N 34°31' E 135°24'0 0.0
2014-Sep-16 11:33N 34°31' E 135°24'0 0.0
2014-Sep-16 10:33N 34°31' E 135°24'0 0.0
2014-Sep-16 09:32N 34°31' E 135°24'0 0.0
2014-Sep-16 08:33N 34°31' E 135°24'0 0.0
2014-Sep-16 07:33N 34°31' E 135°24'0 0.0
2014-Sep-16 06:33N 34°31' E 135°24'0 0.0
2014-Sep-16 05:33N 34°31' E 135°24'0 0.0
2014-Sep-16 04:33N 34°31' E 135°24'0 0.0
2014-Sep-16 03:33N 34°31' E 135°24'0 0.0
2014-Sep-16 02:33N 34°31' E 135°24'4 3.7
2014-Sep-16 01:33N 34°31' E 135°20'1111.5
2014-Sep-16 00:33N 34°23' E 135°09'1111.3
2014-Sep-15 23:33N 34°13' E 135°03'238 9.8
2014-Sep-14 23:19N 35°10' E 139°44'810.5
2014-Sep-14 22:33N 35°18' E 139°44'8 7.5
2014-Sep-14 21:33N 35°24' E 139°48'5 4.9
2014-Sep-14 20:33N 35°22' E 139°53'0 0.0
2014-Sep-14 19:33N 35°22' E 139°53'0 0.0
2014-Sep-14 18:33N 35°22' E 139°53'0 0.0
2014-Sep-14 17:33N 35°22' E 139°53'0 0.0
2014-Sep-14 16:33N 35°22' E 139°53'0 0.0
2014-Sep-14 15:33N 35°22' E 139°53'0 0.0
2014-Sep-14 14:33N 35°22' E 139°53'0 0.1
2014-Sep-14 13:33N 35°22' E 139°54'0 0.2
2014-Sep-14 12:33N 35°21' E 139°54'0 0.0
2014-Sep-14 11:33N 35°21' E 139°54'0 0.0
2014-Sep-14 10:33N 35°21' E 139°54'0 0.0
2014-Sep-14 09:33N 35°21' E 139°54'0 0.0
2014-Sep-14 08:33N 35°21' E 139°54'0 0.0
2014-Sep-14 07:33N 35°21' E 139°54'0 0.0
2014-Sep-14 06:33N 35°21' E 139°54'0 0.0
2014-Sep-14 05:33N 35°21' E 139°54'0 0.0
2014-Sep-14 04:33N 35°21' E 139°54'0 0.0
2014-Sep-14 03:33N 35°21' E 139°54'0 0.0
2014-Sep-14 02:33N 35°21' E 139°54'0 0.0
2014-Sep-14 01:33N 35°21' E 139°54'4 0.9
2014-Sep-13 21:33N 35°25' E 139°51'0 0.0
2014-Sep-13 20:33N 35°25' E 139°51'0 0.0
2014-Sep-13 19:33N 35°25' E 139°51'0 0.0
2014-Sep-13 18:33N 35°25' E 139°51'0 0.0
2014-Sep-13 17:33N 35°25' E 139°51'0 0.0
2014-Sep-13 16:33N 35°25' E 139°51'0 0.0
2014-Sep-13 15:33N 35°25' E 139°51'0 0.0
2014-Sep-13 14:33N 35°25' E 139°51'0 0.0
2014-Sep-13 13:33N 35°25' E 139°51'0 0.0
2014-Sep-13 12:33N 35°25' E 139°51'0 0.1
2014-Sep-13 11:33N 35°25' E 139°51'0 0.0
2014-Sep-13 10:33N 35°25' E 139°51'0 0.0
2014-Sep-13 09:33N 35°25' E 139°51'0 0.0
2014-Sep-13 08:33N 35°25' E 139°51'0 0.2
2014-Sep-13 07:33N 35°25' E 139°51'1110.9
2014-Sep-13 06:33N 35°35' E 139°56'6 6.2
2014-Sep-13 05:33N 35°41' E 139°58'0 0.0
2014-Sep-13 04:33N 35°41' E 139°58'0 0.0
2014-Sep-13 03:33N 35°41' E 139°58'0 0.0
2014-Sep-13 02:33N 35°41' E 139°58'0 0.0
2014-Sep-13 01:33N 35°41' E 139°58'0 0.0
2014-Sep-13 00:33N 35°41' E 139°58'0 0.0
2014-Sep-12 23:33N 35°41' E 139°58'6 5.6
2014-Sep-12 22:33N 35°35' E 139°57'1111.2
2014-Sep-12 21:33N 35°26' E 139°49'1010.3
2014-Sep-12 20:33N 35°16' E 139°46'1110.4
2014-Sep-12 19:32N 35°06' E 139°42'240 9.3
2014-Sep-11 17:33N 34°05' E 134°59'1612.0
2014-Sep-11 16:13N 34°21' E 135°00'912.2
2014-Sep-11 15:28N 34°27' E 135°08'1112.3
2014-Sep-11 14:33N 34°34' E 135°18'8 8.1
2014-Sep-11 13:32N 34°38' E 135°28'0 0.0
2014-Sep-11 12:28N 34°38' E 135°28'0 0.0
2014-Sep-11 11:33N 34°38' E 135°28'0 0.0
2014-Sep-11 10:33N 34°38' E 135°28'0 0.0
2014-Sep-11 09:33N 34°38' E 135°28'0 0.0
2014-Sep-11 08:32N 34°38' E 135°28'0 0.0
2014-Sep-11 07:33N 34°38' E 135°28'0 0.0
2014-Sep-11 06:33N 34°38' E 135°28'0 0.0
2014-Sep-11 05:33N 34°38' E 135°28'0 0.0
2014-Sep-11 04:33N 34°38' E 135°28'0 0.0
2014-Sep-11 03:32N 34°38' E 135°28'0 0.0
2014-Sep-11 02:33N 34°38' E 135°28'0 0.0
2014-Sep-11 01:33N 34°38' E 135°28'0 0.0
2014-Sep-11 00:33N 34°38' E 135°28'0 0.3
2014-Sep-10 23:33N 34°37' E 135°27'3 3.4
2014-Sep-10 22:33N 34°37' E 135°23'0 0.0
2014-Sep-10 21:33N 34°37' E 135°23'0 0.0
2014-Sep-10 20:33N 34°37' E 135°23'0 0.0
2014-Sep-10 19:33N 34°37' E 135°23'0 0.0
2014-Sep-10 18:33N 34°37' E 135°23'0 0.0
2014-Sep-10 17:33N 34°37' E 135°23'4 0.6
2014-Sep-10 11:27N 34°35' E 135°27'0 0.3
2014-Sep-10 10:30N 34°35' E 135°28'0 0.0
2014-Sep-10 09:28N 34°35' E 135°28'0 0.0
2014-Sep-10 08:31N 34°35' E 135°28'0 0.0
2014-Sep-09 22:28N 34°35' E 135°28'1 1.0
2014-Sep-09 21:33N 34°35' E 135°27'0 0.0
2014-Sep-09 20:33N 34°35' E 135°27'0 0.0
2014-Sep-09 19:33N 34°35' E 135°27'0 0.0
2014-Sep-09 18:33N 34°35' E 135°27'0 0.0
2014-Sep-09 17:32N 34°35' E 135°27'0 0.0
2014-Sep-09 16:33N 34°35' E 135°27'0 0.0
2014-Sep-09 15:33N 34°35' E 135°27'0 0.0
2014-Sep-09 14:29N 34°35' E 135°27'0 0.1
2014-Sep-09 13:33N 34°35' E 135°27'0 0.0
2014-Sep-09 12:33N 34°35' E 135°27'0 0.0
2014-Sep-09 11:33N 34°35' E 135°27'0 0.0
2014-Sep-09 10:33N 34°35' E 135°27'9 9.0
2014-Sep-09 09:33N 34°31' E 135°17'1211.5
2014-Sep-09 08:33N 34°22' E 135°08'8 8.4
2014-Sep-09 07:34N 34°14' E 135°07'0 0.5
2014-Sep-09 06:33N 34°15' E 135°07'0 0.0
2014-Sep-09 05:33N 34°15' E 135°07'0 0.0
2014-Sep-09 04:34N 34°15' E 135°07'0 0.0
2014-Sep-09 03:33N 34°15' E 135°07'0 0.0
2014-Sep-09 02:33N 34°15' E 135°07'0 0.0
2014-Sep-09 01:33N 34°15' E 135°07'0 0.0
2014-Sep-09 00:34N 34°15' E 135°07'0 0.0
2014-Sep-08 23:33N 34°15' E 135°07'0 0.0
2014-Sep-08 22:34N 34°15' E 135°07'1 0.9
2014-Sep-08 21:33N 34°15' E 135°06'0 0.0
2014-Sep-08 20:33N 34°15' E 135°06'0 0.0
2014-Sep-08 19:33N 34°15' E 135°06'0 0.0
2014-Sep-08 18:33N 34°15' E 135°06'0 0.0
2014-Sep-08 17:33N 34°15' E 135°06'19 9.5
2014-Sep-08 15:33N 34°34' E 135°03'1211.7
2014-Sep-08 14:33N 34°38' E 134°50'  
Track history (hours):
 
Tides and Currents Weather Stations Pressure Air Temp Water Temp Dewpoint Dewpoint Depression Visibility Wind Speed Wind Dir Waves Ship Positions

Tenjinmaru No11

Last reported at 2014-Sep-17 10:30 UTC. Time now 2014-Sep-19 22:00 UTC.
Position N 34°37' E 135°01'.

Length 75 m; draft 4.2 m.

Type: Cargo ship. MMSI: 431003485.

Date/timePositionNaut miles runAvg speedWind from/ knotsBaromVisibWave heightAir tempDewpointWater temp
2014-Sep-17 10:30N 34°37' E 135°01'1111.6
2014-Sep-17 09:33N 34°36' E 135°14'1010.3
2014-Sep-17 08:32N 34°38' E 135°27'0 0.0
2014-Sep-17 07:28N 34°38' E 135°27'0 0.0
2014-Sep-17 06:32N 34°38' E 135°27'0 0.0
2014-Sep-17 05:15N 34°38' E 135°27'0 0.0
2014-Sep-17 04:27N 34°38' E 135°27'2 1.3
2014-Sep-17 02:33N 34°39' E 135°24'8 7.8
2014-Sep-17 01:33N 34°31' E 135°24'0 0.0
2014-Sep-17 00:33N 34°31' E 135°24'0 0.0
2014-Sep-16 23:33N 34°31' E 135°24'0 0.0
2014-Sep-16 22:33N 34°31' E 135°24'0 0.0
2014-Sep-16 21:33N 34°31' E 135°24'0 0.0
2014-Sep-16 20:33N 34°31' E 135°24'0 0.0
2014-Sep-16 19:33N 34°31' E 135°24'0 0.0
2014-Sep-16 18:33N 34°31' E 135°24'0 0.0
2014-Sep-16 17:33N 34°31' E 135°24'0 0.0
2014-Sep-16 16:33N 34°31' E 135°24'0 0.0
2014-Sep-16 15:33N 34°31' E 135°24'0 0.0
2014-Sep-16 14:33N 34°31' E 135°24'0 0.0
2014-Sep-16 13:33N 34°31' E 135°24'0 0.0
2014-Sep-16 12:32N 34°31' E 135°24'0 0.0
2014-Sep-16 11:33N 34°31' E 135°24'0 0.0
2014-Sep-16 10:33N 34°31' E 135°24'0 0.0
2014-Sep-16 09:32N 34°31' E 135°24'0 0.0
2014-Sep-16 08:33N 34°31' E 135°24'0 0.0
2014-Sep-16 07:33N 34°31' E 135°24'0 0.0
2014-Sep-16 06:33N 34°31' E 135°24'0 0.0
2014-Sep-16 05:33N 34°31' E 135°24'0 0.0
2014-Sep-16 04:33N 34°31' E 135°24'0 0.0
2014-Sep-16 03:33N 34°31' E 135°24'0 0.0
2014-Sep-16 02:33N 34°31' E 135°24'4 3.7
2014-Sep-16 01:33N 34°31' E 135°20'1111.5
2014-Sep-16 00:33N 34°23' E 135°09'1111.3
2014-Sep-15 23:33N 34°13' E 135°03'238 9.8
2014-Sep-14 23:19N 35°10' E 139°44'810.5
2014-Sep-14 22:33N 35°18' E 139°44'8 7.5
2014-Sep-14 21:33N 35°24' E 139°48'5 4.9
2014-Sep-14 20:33N 35°22' E 139°53'0 0.0
2014-Sep-14 19:33N 35°22' E 139°53'0 0.0
2014-Sep-14 18:33N 35°22' E 139°53'0 0.0
2014-Sep-14 17:33N 35°22' E 139°53'0 0.0
2014-Sep-14 16:33N 35°22' E 139°53'0 0.0
2014-Sep-14 15:33N 35°22' E 139°53'0 0.0
2014-Sep-14 14:33N 35°22' E 139°53'0 0.1
2014-Sep-14 13:33N 35°22' E 139°54'0 0.2
2014-Sep-14 12:33N 35°21' E 139°54'0 0.0
2014-Sep-14 11:33N 35°21' E 139°54'0 0.0
2014-Sep-14 10:33N 35°21' E 139°54'0 0.0
2014-Sep-14 09:33N 35°21' E 139°54'0 0.0
2014-Sep-14 08:33N 35°21' E 139°54'0 0.0
2014-Sep-14 07:33N 35°21' E 139°54'0 0.0
2014-Sep-14 06:33N 35°21' E 139°54'0 0.0
2014-Sep-14 05:33N 35°21' E 139°54'0 0.0
2014-Sep-14 04:33N 35°21' E 139°54'0 0.0
2014-Sep-14 03:33N 35°21' E 139°54'0 0.0
2014-Sep-14 02:33N 35°21' E 139°54'0 0.0
2014-Sep-14 01:33N 35°21' E 139°54'4 0.9
2014-Sep-13 21:33N 35°25' E 139°51'0 0.0
2014-Sep-13 20:33N 35°25' E 139°51'0 0.0
2014-Sep-13 19:33N 35°25' E 139°51'0 0.0
2014-Sep-13 18:33N 35°25' E 139°51'0 0.0
2014-Sep-13 17:33N 35°25' E 139°51'0 0.0
2014-Sep-13 16:33N 35°25' E 139°51'0 0.0
2014-Sep-13 15:33N 35°25' E 139°51'0 0.0
2014-Sep-13 14:33N 35°25' E 139°51'0 0.0
2014-Sep-13 13:33N 35°25' E 139°51'0 0.0
2014-Sep-13 12:33N 35°25' E 139°51'0 0.1
2014-Sep-13 11:33N 35°25' E 139°51'0 0.0
2014-Sep-13 10:33N 35°25' E 139°51'0 0.0
2014-Sep-13 09:33N 35°25' E 139°51'0 0.0
2014-Sep-13 08:33N 35°25' E 139°51'0 0.2
2014-Sep-13 07:33N 35°25' E 139°51'1110.9
2014-Sep-13 06:33N 35°35' E 139°56'6 6.2
2014-Sep-13 05:33N 35°41' E 139°58'0 0.0
2014-Sep-13 04:33N 35°41' E 139°58'0 0.0
2014-Sep-13 03:33N 35°41' E 139°58'0 0.0
2014-Sep-13 02:33N 35°41' E 139°58'0 0.0
2014-Sep-13 01:33N 35°41' E 139°58'0 0.0
2014-Sep-13 00:33N 35°41' E 139°58'0 0.0
2014-Sep-12 23:33N 35°41' E 139°58'6 5.6
2014-Sep-12 22:33N 35°35' E 139°57'1111.2
2014-Sep-12 21:33N 35°26' E 139°49'1010.3
2014-Sep-12 20:33N 35°16' E 139°46'1110.4
2014-Sep-12 19:32N 35°06' E 139°42'240 9.3
2014-Sep-11 17:33N 34°05' E 134°59'1612.0
2014-Sep-11 16:13N 34°21' E 135°00'912.2
2014-Sep-11 15:28N 34°27' E 135°08'1112.3
2014-Sep-11 14:33N 34°34' E 135°18'8 8.1
2014-Sep-11 13:32N 34°38' E 135°28'0 0.0
2014-Sep-11 12:28N 34°38' E 135°28'0 0.0
2014-Sep-11 11:33N 34°38' E 135°28'0 0.0
2014-Sep-11 10:33N 34°38' E 135°28'0 0.0
2014-Sep-11 09:33N 34°38' E 135°28'0 0.0
2014-Sep-11 08:32N 34°38' E 135°28'0 0.0
2014-Sep-11 07:33N 34°38' E 135°28'0 0.0
2014-Sep-11 06:33N 34°38' E 135°28'0 0.0
2014-Sep-11 05:33N 34°38' E 135°28'0 0.0
2014-Sep-11 04:33N 34°38' E 135°28'0 0.0
2014-Sep-11 03:32N 34°38' E 135°28'0 0.0
2014-Sep-11 02:33N 34°38' E 135°28'0 0.0
2014-Sep-11 01:33N 34°38' E 135°28'0 0.0
2014-Sep-11 00:33N 34°38' E 135°28'0 0.3
2014-Sep-10 23:33N 34°37' E 135°27'3 3.4
2014-Sep-10 22:33N 34°37' E 135°23'0 0.0
2014-Sep-10 21:33N 34°37' E 135°23'0 0.0
2014-Sep-10 20:33N 34°37' E 135°23'0 0.0
2014-Sep-10 19:33N 34°37' E 135°23'0 0.0
2014-Sep-10 18:33N 34°37' E 135°23'0 0.0
2014-Sep-10 17:33N 34°37' E 135°23'4 0.6
2014-Sep-10 11:27N 34°35' E 135°27'0 0.3
2014-Sep-10 10:30N 34°35' E 135°28'0 0.0
2014-Sep-10 09:28N 34°35' E 135°28'0 0.0
2014-Sep-10 08:31N 34°35' E 135°28'0 0.0
2014-Sep-09 22:28N 34°35' E 135°28'1 1.0
2014-Sep-09 21:33N 34°35' E 135°27'0 0.0
2014-Sep-09 20:33N 34°35' E 135°27'0 0.0
2014-Sep-09 19:33N 34°35' E 135°27'0 0.0
2014-Sep-09 18:33N 34°35' E 135°27'0 0.0
2014-Sep-09 17:32N 34°35' E 135°27'0 0.0
2014-Sep-09 16:33N 34°35' E 135°27'0 0.0
2014-Sep-09 15:33N 34°35' E 135°27'0 0.0
2014-Sep-09 14:29N 34°35' E 135°27'0 0.1
2014-Sep-09 13:33N 34°35' E 135°27'0 0.0
2014-Sep-09 12:33N 34°35' E 135°27'0 0.0
2014-Sep-09 11:33N 34°35' E 135°27'0 0.0
2014-Sep-09 10:33N 34°35' E 135°27'9 9.0
2014-Sep-09 09:33N 34°31' E 135°17'1211.5
2014-Sep-09 08:33N 34°22' E 135°08'8 8.4
2014-Sep-09 07:34N 34°14' E 135°07'0 0.5
2014-Sep-09 06:33N 34°15' E 135°07'0 0.0
2014-Sep-09 05:33N 34°15' E 135°07'0 0.0
2014-Sep-09 04:34N 34°15' E 135°07'0 0.0
2014-Sep-09 03:33N 34°15' E 135°07'0 0.0
2014-Sep-09 02:33N 34°15' E 135°07'0 0.0
2014-Sep-09 01:33N 34°15' E 135°07'0 0.0
2014-Sep-09 00:34N 34°15' E 135°07'0 0.0
2014-Sep-08 23:33N 34°15' E 135°07'0 0.0
2014-Sep-08 22:34N 34°15' E 135°07'1 0.9
2014-Sep-08 21:33N 34°15' E 135°06'0 0.0
2014-Sep-08 20:33N 34°15' E 135°06'0 0.0
2014-Sep-08 19:33N 34°15' E 135°06'0 0.0
2014-Sep-08 18:33N 34°15' E 135°06'0 0.0
2014-Sep-08 17:33N 34°15' E 135°06'19 9.5
2014-Sep-08 15:33N 34°34' E 135°03'1211.7
2014-Sep-08 14:33N 34°38' E 134°50'  

Dump ship's entire track history